Terminal Aerodrome Forecast
Issued by NWS Springfield, MO

Home | Current Version | Previous Version | Text Only | Print | Product List | Glossary On
Versions: 1 2 3 4 5 6 7 8 9 10 11 12 13 14 15 16 17 18 19 20 21 22 23 24 25
000
FTUS43 KSGF 141100
TAFSGF
TAF
KSGF 141127Z 1412/1512 15006KT P6SM BKN060 OVC250
     FM141600 18008KT P6SM SCT050
     FM150000 15008KT P6SM SCT250=

USA.gov is the U.S. government's official web portal to all federal, state and local government web resources and services.